Latest Coastal Weather Observations for Arlington Reef

IDQ60701

Issued at 1:02 am EST Thursday 11 August 2022 (issued every 10 minutes, with the page automatically refreshed every 10 minutes)

About coastal observations | Map of coastal stations | Coastal observations for QLD | Marine services | Other Formats
Station Details ID: 200879 Name: ARLINGTON REEF Lat: -16.72 Lon: 146.11 Height: 0.0 m
Data from the previous 72 hours. | See also: Recent months at Arlington Reef
Date/Time
EST
Wind Sea
Height
m
Swell Vis
km
Cloud Weather Temp
°C
Press
MSL
hPa
Rain since
9am
mm
Dir  Spd
kts
Gust
kts
Height
m
Period
s
Dir
11/01:00am ESE 20 23 - - - - - - - - 1017.1 -
11/12:30am SE 19 23 - - - - - - - - 1017.3 -
11/12:14am SE 18 22 - - - - - - - - 1017.5 -
11/12:00am SE 20 26 - - - - - - - - 1017.6 -
 
Date/Time
EST
Wind Sea
Height
m
Swell Vis
km
Cloud Weather Temp
°C
Press
MSL
hPa
Rain since
9am
mm
Dir  Spd
kts
Gust
kts
Height
m
Period
s
Dir
10/11:59pm SE 20 26 - - - - - - - - 1017.6 -
10/11:30pm ESE 14 18 - - - - - - - - 1018.1 -
10/11:10pm ESE 21 27 - - - - - - - - 1018.1 -
10/11:00pm SE 19 23 - - - - - - - - 1018.1 -
10/10:30pm SE 20 24 - - - - - - - - 1018.1 -
10/10:00pm SE 19 23 - - - - - - - - 1018.3 -
10/09:30pm SE 20 23 - - - - - - - - 1018.3 -
10/09:00pm SE 21 25 - - - - - - - - 1018.3 -
10/08:30pm SE 22 26 - - - - - - - - 1017.8 -
10/08:00pm SE 20 23 - - - - - - - - 1017.6 -
10/07:30pm SSE 21 24 - - - - - - - - 1017.2 -
10/07:00pm SE 22 26 - - - - - - - - 1017.0 -
10/06:30pm SSE 22 26 - - - - - - - - 1016.6 -
10/06:00pm SSE 22 26 - - - - - - - - 1016.4 -
10/05:30pm SSE 21 26 - - - - - - - - 1016.3 -
10/05:00pm SSE 21 26 - - - - - - - - 1016.1 -
10/04:30pm SSE 20 25 - - - - - - - - 1016.0 -
10/04:00pm SSE 21 25 - - - - - - - - 1015.7 -
10/03:30pm S 22 28 - - - - - - - - 1015.5 -
10/03:00pm S 22 26 - - - - - - - - 1015.7 -
10/02:30pm S 22 26 - - - - - - - - 1015.8 -
10/02:00pm S 22 25 - - - - - - - - 1016.3 -
10/01:30pm SSE 19 22 - - - - - - - - 1016.7 -
10/01:00pm S 20 23 - - - - - - - - 1017.0 -
10/12:30pm SSE 21 23 - - - - - - - - 1017.2 -
10/12:00pm SSE 19 23 - - - - - - - - 1017.7 -
10/11:30am SSE 17 21 - - - - - - - - 1018.2 -
10/11:00am S 17 22 - - - - - - - - 1018.6 -
10/10:30am SSE 19 24 - - - - - - - - 1018.8 -
10/10:00am SSE 20 23 - - - - - - - - 1018.8 -
10/09:30am SSE 18 24 - - - - - - - - 1018.8 -
10/09:00am SE 17 22 - - - - - - - - 1018.6 -
10/08:30am SSE 20 26 - - - - - - - - 1018.1 -
10/08:00am SSE 19 23 - - - - - - - - 1018.0 -
10/07:30am SSE 19 23 - - - - - - - - 1018.0 -
10/07:00am SSE 19 23 - - - - - - - - 1017.5 -
10/06:30am SSE 18 22 - - - - - - - - 1017.2 -
10/06:00am SSE 19 23 - - - - - - - - 1016.9 -
10/05:30am SE 20 25 - - - - - - - - 1016.4 -
10/05:00am SE 20 24 - - - - - - - - 1016.3 -
10/04:30am SSE 20 25 - - - - - - - - 1016.0 -
10/04:00am SSE 20 24 - - - - - - - - 1015.9 -
10/03:30am SSE 18 23 - - - - - - - - 1016.4 -
10/03:00am SE 17 22 - - - - - - - - 1016.7 -
10/02:30am SE 17 21 - - - - - - - - 1016.9 -
10/02:00am SE 16 21 - - - - - - - - 1017.1 -
10/01:30am SE 20 23 - - - - - - - - 1017.3 -
10/01:00am SE 17 21 - - - - - - - - 1017.6 -
10/12:30am SE 19 23 - - - - - - - - 1017.8 -
10/12:00am SE 19 23 - - - - - - - - 1017.9 -
 
Date/Time
EST
Wind Sea
Height
m
Swell Vis
km
Cloud Weather Temp
°C
Press
MSL
hPa
Rain since
9am
mm
Dir  Spd
kts
Gust
kts
Height
m
Period
s
Dir
09/11:30pm SE 19 23 - - - - - - - - 1018.2 -
09/11:00pm SSE 17 21 - - - - - - - - 1018.4 -
09/10:30pm SSE 19 23 - - - - - - - - 1018.5 -
09/10:00pm SE 17 20 - - - - - - - - 1018.4 -
09/09:30pm SE 17 23 - - - - - - - - 1018.1 -
09/09:00pm SSE 18 21 - - - - - - - - 1018.1 -
09/08:30pm SSE 19 23 - - - - - - - - 1017.9 -
09/08:00pm SE 19 23 - - - - - - - - 1017.6 -
09/07:30pm SSE 21 25 - - - - - - - - 1016.8 -
09/07:00pm SSE 20 24 - - - - - - - - 1016.5 -
09/06:30pm SSE 19 22 - - - - - - - - 1016.1 -
09/06:00pm SSE 20 24 - - - - - - - - 1015.6 -
09/05:30pm SSE 19 24 - - - - - - - - 1015.4 -
09/05:00pm SSE 18 22 - - - - - - - - 1015.0 -
09/04:30pm SSE 19 23 - - - - - - - - 1014.8 -
09/04:00pm SSE 20 23 - - - - - - - - 1014.3 -
09/03:30pm SSE 20 24 - - - - - - - - 1014.2 -
09/03:00pm SSE 21 24 - - - - - - - - 1014.1 -
09/02:30pm SSE 22 26 - - - - - - - - 1014.3 -
09/02:00pm SSE 22 26 - - - - - - - - 1014.7 -
09/01:30pm SSE 21 25 - - - - - - - - 1014.9 -
09/01:00pm SSE 21 25 - - - - - - - - 1015.4 -
09/12:30pm SSE 20 24 - - - - - - - - 1015.8 -
09/12:00pm SSE 19 22 - - - - - - - - 1016.3 -
09/11:30am SSE 19 23 - - - - - - - - 1016.6 -
09/11:00am SSE 19 23 - - - - - - - - 1016.9 -
09/10:30am SSE 21 26 - - - - - - - - 1017.1 -
09/10:00am SE 22 26 - - - - - - - - 1017.0 -
09/09:30am SE 22 26 - - - - - - - - 1017.0 -
09/09:00am SE 22 27 - - - - - - - - 1017.0 -
09/08:30am SE 22 27 - - - - - - - - 1016.7 -
09/08:00am SE 22 26 - - - - - - - - 1016.5 -
09/07:30am SE 22 27 - - - - - - - - 1016.1 -
09/07:00am SE 25 30 - - - - - - - - 1015.8 -
09/06:30am SE 23 27 - - - - - - - - 1015.5 -
09/06:00am SE 22 26 - - - - - - - - 1015.2 -
09/05:30am SE 22 28 - - - - - - - - 1015.0 -
09/05:00am SE 19 23 - - - - - - - - 1014.7 -
09/04:30am SE 19 23 - - - - - - - - 1014.6 -
09/04:00am SE 20 24 - - - - - - - - 1014.4 -
09/03:30am SE 22 25 - - - - - - - - 1014.4 -
09/03:00am SE 22 26 - - - - - - - - 1014.8 -
09/02:30am SE 22 26 - - - - - - - - 1015.0 -
09/02:00am SE 21 25 - - - - - - - - 1015.2 -
09/01:30am SE 18 22 - - - - - - - - 1015.3 -
09/01:00am SE 19 23 - - - - - - - - 1015.7 -
09/12:30am SE 20 23 - - - - - - - - 1015.7 -
09/12:00am SE 20 24 - - - - - - - - 1015.8 -
 
Date/Time
EST
Wind Sea
Height
m
Swell Vis
km
Cloud Weather Temp
°C
Press
MSL
hPa
Rain since
9am
mm
Dir  Spd
kts
Gust
kts
Height
m
Period
s
Dir
08/11:30pm SE 21 25 - - - - - - - - 1015.8 -
08/11:00pm SE 22 26 - - - - - - - - 1015.6 -
08/10:30pm SE 21 25 - - - - - - - - 1015.8 -
08/10:00pm SE 20 24 - - - - - - - - 1015.6 -
08/09:30pm SE 22 25 - - - - - - - - 1015.5 -
08/09:00pm SE 22 25 - - - - - - - - 1015.3 -
08/08:30pm SE 22 26 - - - - - - - - 1015.1 -
08/08:00pm SE 21 24 - - - - - - - - 1015.0 -
08/07:30pm SE 20 24 - - - - - - - - 1014.8 -
08/07:00pm SE 20 25 - - - - - - - - 1014.5 -
08/06:30pm SE 20 23 - - - - - - - - 1014.3 -
08/06:00pm SE 19 24 - - - - - - - - 1013.9 -
08/05:30pm SE 20 24 - - - - - - - - 1013.8 -
08/05:00pm SE 17 21 - - - - - - - - 1013.6 -
08/04:30pm SE 17 20 - - - - - - - - 1013.5 -
08/04:00pm SE 17 20 - - - - - - - - 1013.2 -
08/03:30pm SE 17 19 - - - - - - - - 1013.3 -
08/03:00pm SE 17 20 - - - - - - - - 1013.2 -
08/02:30pm SE 18 20 - - - - - - - - 1013.5 -
08/02:00pm SE 19 22 - - - - - - - - 1013.7 -
08/01:30pm SE 18 20 - - - - - - - - 1014.2 -
08/01:00pm SSE 17 20 - - - - - - - - 1014.4 -
08/12:30pm SE 15 18 - - - - - - - - 1015.0 -
08/12:00pm SE 15 17 - - - - - - - - 1015.3 -
08/11:30am ESE 15 18 - - - - - - - - 1015.6 -
08/11:00am SE 16 21 - - - - - - - - 1015.8 -
08/10:30am ESE 14 16 - - - - - - - - 1016.2 -
08/10:00am SE 16 18 - - - - - - - - 1016.2 -
08/09:30am SE 15 17 - - - - - - - - 1016.2 -
08/09:00am SE 14 17 - - - - - - - - 1016.0 -
08/08:30am SE 14 16 - - - - - - - - 1015.7 -
08/08:00am SE 15 17 - - - - - - - - 1015.4 -
08/07:30am SE 15 17 - - - - - - - - 1015.2 -
08/07:00am SE 16 19 - - - - - - - - 1014.9 -
08/06:30am SE 17 20 - - - - - - - - 1014.5 -
08/06:00am SE 16 19 - - - - - - - - 1014.3 -
08/05:30am SSE 14 17 - - - - - - - - 1013.9 -
08/05:00am S 15 18 - - - - - - - - 1013.7 -
08/04:30am S 15 17 - - - - - - - - 1013.6 -
08/04:00am S 14 17 - - - - - - - - 1013.6 -
08/03:30am S 14 17 - - - - - - - - 1013.7 -
08/03:00am S 14 17 - - - - - - - - 1013.7 -
08/02:30am S 14 17 - - - - - - - - 1013.7 -
08/02:00am S 14 16 - - - - - - - - 1014.0 -
08/01:30am S 12 15 - - - - - - - - 1014.4 -

Other formats

Comma delimited format used in spreadsheet applications
http://www.bom.gov.au/fwo/IDQ60701/IDQ60701.94284.axf

JavaScript Object Notation format (JSON) in row-major order
http://www.bom.gov.au/fwo/IDQ60701/IDQ60701.94284.json

Data quality

Most of these data are generated automatically and are frequently updated. Quality checks on data are not normally performed. It is possible for incorrect values to appear. Refer to information at About Latest Weather Observations and please check the disclaimer before using these data.